< < Back
Terminal Aerodrome Forecast


Current Version              Previous Versions:   1  2  3  4  5  6  7  8  9  

Terminal Aerodrome Forecast

853
FTUS42 KCAE 161000 AAB
TAFAGS
TAF AMD
KAGS 161033Z 1611/1706 03007KT P6SM SKC WS015/04030KT
     FM161300 04014G24KT P6SM SKC
     FM161700 07010KT P6SM SKC=



Latest METAR

781
SAUS70 KWBC 161300 RRD
MTRAGS
METAR KAGS 161253Z 04010G19KT 10SM CLR 06/M03 A3031 RMK AO2 SLP262
T00611033


USA.gov is the U.S. government's official web portal to all federal, state and local government web resources and services.